createdAt,value
2018-12-07T00:00:41.013Z,926.19
2018-12-07T00:02:12.590Z,926.22
2018-12-07T00:03:44.158Z,926.16
2018-12-07T00:05:15.827Z,926.21
2018-12-07T00:06:47.299Z,926.28
2018-12-07T00:08:18.871Z,926.25
2018-12-07T00:09:50.443Z,926.28
2018-12-07T00:11:22.015Z,926.32
2018-12-07T00:12:53.587Z,926.37
2018-12-07T00:14:25.160Z,926.39
2018-12-07T00:15:56.730Z,926.36
2018-12-07T00:17:28.303Z,926.43
2018-12-07T00:18:59.875Z,926.37
2018-12-07T00:20:31.447Z,926.44
2018-12-07T00:22:03.018Z,926.45
2018-12-07T00:23:34.692Z,926.47
2018-12-07T00:25:06.164Z,926.49
2018-12-07T00:26:37.733Z,926.54
2018-12-07T00:28:09.306Z,926.63
2018-12-07T00:29:40.878Z,926.66
2018-12-07T00:31:12.449Z,926.68
2018-12-07T00:32:44.035Z,926.71
2018-12-07T00:34:15.592Z,926.68
2018-12-07T00:35:47.164Z,926.64
2018-12-07T00:37:18.737Z,926.57
2018-12-07T00:38:50.313Z,926.59
2018-12-07T00:40:21.881Z,926.60
2018-12-07T00:41:53.554Z,926.57
2018-12-07T00:43:25.025Z,926.65
2018-12-07T00:44:56.626Z,926.73
2018-12-07T00:46:28.183Z,926.69
2018-12-07T00:47:59.742Z,926.67
2018-12-07T00:49:31.314Z,926.73
2018-12-07T00:51:02.887Z,926.72
2018-12-07T00:52:34.458Z,926.70
2018-12-07T00:54:06.032Z,926.63
2018-12-07T00:55:37.603Z,926.56
2018-12-07T00:57:09.176Z,926.56
2018-12-07T00:58:40.757Z,926.63
2018-12-07T01:00:12.425Z,926.61
2018-12-07T01:01:43.893Z,926.66
2018-12-07T01:03:15.507Z,926.61
2018-12-07T01:04:47.038Z,926.62
2018-12-07T01:06:18.611Z,926.53
2018-12-07T01:07:50.182Z,926.54
2018-12-07T01:09:21.755Z,926.56
2018-12-07T01:10:53.327Z,926.59
2018-12-07T01:12:24.900Z,926.56
2018-12-07T01:13:56.472Z,926.53
2018-12-07T01:15:28.055Z,926.51
2018-12-07T01:16:59.616Z,926.54
2018-12-07T01:18:31.289Z,926.46
2018-12-07T01:20:02.761Z,926.49
2018-12-07T01:21:34.333Z,926.43
2018-12-07T01:23:05.905Z,926.41
2018-12-07T01:24:37.489Z,926.38
2018-12-07T01:26:09.050Z,926.41
2018-12-07T01:27:40.622Z,926.44
2018-12-07T01:29:12.670Z,926.47
2018-12-07T01:30:43.815Z,926.49
2018-12-07T01:32:15.338Z,926.51
2018-12-07T01:33:46.911Z,926.56
2018-12-07T01:35:18.483Z,926.55
2018-12-07T01:36:50.157Z,926.53
2018-12-07T01:38:21.628Z,926.55
2018-12-07T01:39:53.211Z,926.47
2018-12-07T01:41:24.777Z,926.46
2018-12-07T01:42:56.345Z,926.37
2018-12-07T01:44:27.917Z,926.46
2018-12-07T01:45:59.489Z,926.45
2018-12-07T01:47:31.061Z,926.40
2018-12-07T01:49:02.633Z,926.36
2018-12-07T01:50:34.206Z,926.35
2018-12-07T01:52:05.780Z,926.38
2018-12-07T01:53:37.350Z,926.38
2018-12-07T01:55:09.022Z,926.43
2018-12-07T01:56:40.507Z,926.44
2018-12-07T01:58:12.068Z,926.48
2018-12-07T01:59:43.640Z,926.44
2018-12-07T02:01:15.218Z,926.42
2018-12-07T02:02:46.783Z,926.38
2018-12-07T02:04:18.355Z,926.38
2018-12-07T02:05:49.940Z,926.37
2018-12-07T02:07:21.499Z,926.32
2018-12-07T02:08:53.072Z,926.36
2018-12-07T02:10:24.643Z,926.37
2018-12-07T02:11:56.217Z,926.33
2018-12-07T02:13:27.887Z,926.26
2018-12-07T02:14:59.360Z,926.23
2018-12-07T02:16:30.932Z,926.25
2018-12-07T02:18:02.512Z,926.29
2018-12-07T02:19:34.076Z,926.27
2018-12-07T02:21:05.648Z,926.26
2018-12-07T02:22:37.221Z,926.22
2018-12-07T02:24:08.795Z,926.23
2018-12-07T02:25:40.365Z,926.14
2018-12-07T02:27:11.938Z,926.16
2018-12-07T02:28:43.510Z,926.16
2018-12-07T02:30:15.084Z,926.14
2018-12-07T02:31:46.754Z,926.09
2018-12-07T02:33:18.227Z,926.06
2018-12-07T02:34:49.836Z,926.04
2018-12-07T02:36:21.371Z,925.97
2018-12-07T02:37:52.943Z,925.92
2018-12-07T02:39:24.518Z,925.93
2018-12-07T02:40:56.123Z,925.91
2018-12-07T02:42:27.660Z,925.91
2018-12-07T02:43:59.232Z,925.90
2018-12-07T02:45:30.805Z,925.89
2018-12-07T02:47:02.378Z,925.91
2018-12-07T02:48:33.949Z,925.96
2018-12-07T02:50:05.621Z,925.99
2018-12-07T02:51:37.094Z,926.05
2018-12-07T02:53:08.666Z,926.02
2018-12-07T02:54:40.240Z,926.01
2018-12-07T02:56:11.810Z,926.01
2018-12-07T02:57:43.382Z,926.01
2018-12-07T02:59:14.954Z,926.01
2018-12-07T03:00:46.528Z,926.00
2018-12-07T03:02:18.098Z,926.00
2018-12-07T03:03:49.671Z,925.94
2018-12-07T03:05:21.242Z,925.93
2018-12-07T03:06:52.814Z,925.90
2018-12-07T03:08:24.492Z,925.89
2018-12-07T03:09:55.959Z,925.83
2018-12-07T03:11:27.533Z,925.83
2018-12-07T03:12:59.118Z,925.91
2018-12-07T03:14:30.678Z,925.93
2018-12-07T03:16:02.248Z,925.93
2018-12-07T03:17:33.822Z,925.84
2018-12-07T03:19:05.394Z,925.80
2018-12-07T03:20:36.966Z,925.78
2018-12-07T03:22:08.537Z,925.74
2018-12-07T03:23:40.109Z,925.78
2018-12-07T03:25:11.682Z,925.72
2018-12-07T03:26:43.354Z,925.69
2018-12-07T03:28:14.827Z,925.65
2018-12-07T03:29:46.399Z,925.70
2018-12-07T03:31:17.972Z,925.62
2018-12-07T03:32:49.544Z,925.60
2018-12-07T03:34:21.115Z,925.53
2018-12-07T03:35:52.690Z,925.48
2018-12-07T03:37:24.260Z,925.41
2018-12-07T03:38:55.832Z,925.40
2018-12-07T03:40:27.405Z,925.37
2018-12-07T03:41:58.983Z,925.37
2018-12-07T03:43:30.548Z,925.42
2018-12-07T03:45:02.220Z,925.41
2018-12-07T03:46:33.699Z,925.41
2018-12-07T03:48:05.266Z,925.48
2018-12-07T03:49:36.837Z,925.47
2018-12-07T03:51:08.411Z,925.44
2018-12-07T03:52:39.981Z,925.42
2018-12-07T03:54:11.556Z,925.40
2018-12-07T03:55:43.125Z,925.37
2018-12-07T03:57:14.697Z,925.39
2018-12-07T03:58:46.269Z,925.36
2018-12-07T04:00:17.840Z,925.33
2018-12-07T04:01:49.413Z,925.32
2018-12-07T04:03:21.085Z,925.35
2018-12-07T04:04:52.556Z,925.39
2018-12-07T04:06:24.129Z,925.38
2018-12-07T04:07:55.701Z,925.41
2018-12-07T04:09:27.373Z,925.45
2018-12-07T04:10:58.844Z,925.45
2018-12-07T04:12:30.436Z,925.43
2018-12-07T04:14:01.989Z,925.38
2018-12-07T04:15:33.562Z,925.38
2018-12-07T04:17:05.139Z,925.39
2018-12-07T04:18:36.705Z,925.37
2018-12-07T04:20:08.277Z,925.33
2018-12-07T04:21:39.952Z,925.28
2018-12-07T04:23:11.421Z,925.31
2018-12-07T04:24:42.996Z,925.34
2018-12-07T04:26:14.568Z,925.32
2018-12-07T04:27:46.437Z,925.30
2018-12-07T04:29:17.709Z,925.27
2018-12-07T04:30:49.281Z,925.27
2018-12-07T04:32:20.853Z,925.27
2018-12-07T04:33:52.425Z,925.24
2018-12-07T04:35:24.005Z,925.22
2018-12-07T04:36:55.568Z,925.20
2018-12-07T04:38:27.141Z,925.20
2018-12-07T04:39:58.812Z,925.20
2018-12-07T04:41:30.283Z,925.11
2018-12-07T04:43:01.856Z,925.12
2018-12-07T04:44:33.428Z,925.13
2018-12-07T04:46:04.999Z,925.08
2018-12-07T04:47:36.570Z,925.07
2018-12-07T04:49:08.142Z,925.10
2018-12-07T04:50:39.714Z,925.07
2018-12-07T04:52:11.285Z,925.08
2018-12-07T04:53:42.857Z,925.05
2018-12-07T04:55:14.429Z,925.04
2018-12-07T04:56:46.001Z,925.02
2018-12-07T04:58:17.683Z,925.03
2018-12-07T04:59:49.144Z,925.11
2018-12-07T05:01:20.715Z,925.14
2018-12-07T05:02:52.289Z,925.17
2018-12-07T05:04:23.859Z,925.14
2018-12-07T05:05:55.432Z,925.18
2018-12-07T05:07:27.012Z,925.17
2018-12-07T05:08:58.580Z,925.12
2018-12-07T05:10:30.162Z,925.15
2018-12-07T05:12:01.716Z,925.16
2018-12-07T05:13:33.293Z,925.17
2018-12-07T05:15:04.865Z,925.16
2018-12-07T05:16:36.531Z,925.17
2018-12-07T05:18:08.002Z,925.19
2018-12-07T05:19:39.574Z,925.16
2018-12-07T05:21:11.147Z,925.13
2018-12-07T05:22:42.718Z,925.12
2018-12-07T05:24:14.291Z,925.13
2018-12-07T05:25:45.862Z,925.10
2018-12-07T05:27:17.435Z,925.16
2018-12-07T05:28:49.006Z,925.14
2018-12-07T05:30:20.649Z,925.10
2018-12-07T05:31:52.149Z,925.06
2018-12-07T05:33:23.728Z,925.06
2018-12-07T05:34:55.394Z,925.03
2018-12-07T05:36:26.869Z,924.98
2018-12-07T05:37:58.437Z,924.99
2018-12-07T05:39:30.009Z,925.05
2018-12-07T05:41:01.587Z,925.01
2018-12-07T05:42:33.153Z,925.11
2018-12-07T05:44:04.726Z,925.12
2018-12-07T05:45:36.298Z,925.04
2018-12-07T05:47:07.872Z,925.05
2018-12-07T05:48:39.442Z,925.01
2018-12-07T05:50:11.014Z,925.00
2018-12-07T05:51:42.587Z,924.98
2018-12-07T05:53:14.258Z,925.00
2018-12-07T05:54:45.730Z,924.97
2018-12-07T05:56:17.302Z,924.92
2018-12-07T05:57:48.874Z,924.91
2018-12-07T05:59:20.504Z,924.92
2018-12-07T06:00:52.018Z,924.87
2018-12-07T06:02:23.590Z,924.92
2018-12-07T06:03:55.162Z,924.92
2018-12-07T06:05:26.734Z,924.98
2018-12-07T06:06:58.310Z,925.00
2018-12-07T06:08:29.878Z,925.02
2018-12-07T06:10:01.450Z,925.04
2018-12-07T06:11:33.122Z,924.98
2018-12-07T06:13:04.623Z,925.05
2018-12-07T06:14:36.166Z,924.96
2018-12-07T06:16:07.738Z,924.96
2018-12-07T06:17:39.310Z,924.88
2018-12-07T06:19:10.882Z,924.84
2018-12-07T06:20:42.454Z,924.81
2018-12-07T06:22:14.026Z,924.89
2018-12-07T06:23:45.598Z,924.93
2018-12-07T06:25:17.173Z,924.93
2018-12-07T06:26:48.743Z,924.93
2018-12-07T06:28:20.314Z,924.89
2018-12-07T06:29:51.985Z,924.94
2018-12-07T06:31:23.457Z,925.04
2018-12-07T06:32:56.518Z,925.10
2018-12-07T06:34:26.605Z,925.10
2018-12-07T06:35:58.173Z,925.11
2018-12-07T06:37:29.745Z,925.01
2018-12-07T06:39:01.316Z,924.98
2018-12-07T06:40:32.888Z,924.94
2018-12-07T06:42:04.463Z,924.94
2018-12-07T06:43:36.034Z,924.95
2018-12-07T06:45:07.605Z,924.97
2018-12-07T06:46:39.178Z,924.97
2018-12-07T06:48:10.949Z,925.04
2018-12-07T06:49:42.321Z,925.04
2018-12-07T06:51:13.892Z,924.97
2018-12-07T06:52:45.465Z,924.96
2018-12-07T06:54:17.041Z,925.02
2018-12-07T06:55:48.611Z,925.04
2018-12-07T06:57:20.180Z,925.01
2018-12-07T06:58:51.752Z,925.04
2018-12-07T07:00:23.627Z,925.00
2018-12-07T07:01:54.896Z,925.00
2018-12-07T07:03:26.468Z,924.93
2018-12-07T07:04:58.041Z,925.02
2018-12-07T07:06:29.716Z,925.10
2018-12-07T07:08:01.184Z,925.13
2018-12-07T07:09:32.757Z,925.15
2018-12-07T07:11:04.328Z,925.09
2018-12-07T07:12:35.903Z,925.09
2018-12-07T07:14:07.472Z,925.14
2018-12-07T07:15:39.044Z,925.11
2018-12-07T07:17:10.617Z,925.14
2018-12-07T07:18:42.188Z,925.09
2018-12-07T07:20:13.760Z,925.09
2018-12-07T07:21:45.332Z,925.04
2018-12-07T07:23:16.904Z,925.09
2018-12-07T07:24:48.576Z,925.04
2018-12-07T07:26:20.047Z,925.11
2018-12-07T07:27:51.619Z,925.06
2018-12-07T07:29:23.194Z,925.10
2018-12-07T07:30:54.763Z,925.12
2018-12-07T07:32:26.342Z,925.17
2018-12-07T07:33:57.907Z,925.16
2018-12-07T07:35:29.479Z,925.26
2018-12-07T07:37:01.051Z,925.23
2018-12-07T07:38:32.623Z,925.19
2018-12-07T07:40:04.194Z,925.14
2018-12-07T07:41:35.768Z,925.10
2018-12-07T07:43:07.447Z,925.17
2018-12-07T07:44:38.911Z,925.17
2018-12-07T07:46:10.482Z,925.24
2018-12-07T07:47:42.054Z,925.23
2018-12-07T07:49:13.627Z,925.31
2018-12-07T07:50:45.198Z,925.29
2018-12-07T07:52:16.770Z,925.29
2018-12-07T07:53:48.342Z,925.29
2018-12-07T07:55:19.915Z,925.28
2018-12-07T07:56:51.490Z,925.24
2018-12-07T07:58:23.059Z,925.25
2018-12-07T07:59:54.632Z,925.22
2018-12-07T08:01:26.303Z,925.17
2018-12-07T08:03:00.022Z,925.21
2018-12-07T08:04:29.348Z,925.25
2018-12-07T08:06:00.977Z,925.26
2018-12-07T08:07:32.492Z,925.20
2018-12-07T08:09:04.116Z,925.23
2018-12-07T08:10:35.637Z,925.28
2018-12-07T08:12:07.607Z,925.28
2018-12-07T08:13:38.927Z,925.26
2018-12-07T08:15:10.356Z,925.26
2018-12-07T08:16:41.930Z,925.22
2018-12-07T08:18:13.498Z,925.19
2018-12-07T08:19:45.303Z,925.21
2018-12-07T08:21:16.644Z,925.23
2018-12-07T08:22:48.214Z,925.25
2018-12-07T08:24:20.461Z,925.25
2018-12-07T08:25:51.599Z,925.31
2018-12-07T08:27:23.050Z,925.30
2018-12-07T08:28:54.572Z,925.33
2018-12-07T08:30:26.120Z,925.39
2018-12-07T08:31:58.365Z,925.36
2018-12-07T08:33:29.218Z,925.40
2018-12-07T08:35:00.790Z,925.39
2018-12-07T08:36:32.362Z,925.37
2018-12-07T08:38:04.036Z,925.37
2018-12-07T08:39:35.508Z,925.43
2018-12-07T08:41:07.112Z,925.44
2018-12-07T08:42:38.656Z,925.44
2018-12-07T08:44:10.226Z,925.49
2018-12-07T08:45:41.832Z,925.48
2018-12-07T08:47:13.372Z,925.49
2018-12-07T08:48:44.941Z,925.54
2018-12-07T08:50:16.545Z,925.56
2018-12-07T08:51:48.086Z,925.55
2018-12-07T08:53:19.658Z,925.62
2018-12-07T08:54:51.232Z,925.55
2018-12-07T08:56:22.903Z,925.66
2018-12-07T08:57:54.377Z,925.68
2018-12-07T08:59:25.947Z,925.66
2018-12-07T09:00:57.543Z,925.73
2018-12-07T09:02:29.698Z,925.70
2018-12-07T09:04:00.664Z,925.70
2018-12-07T09:05:32.268Z,925.70
2018-12-07T09:07:03.810Z,925.74
2018-12-07T09:08:35.383Z,925.74
2018-12-07T09:10:06.986Z,925.81
2018-12-07T09:11:38.527Z,925.74
2018-12-07T09:13:10.100Z,925.74
2018-12-07T09:14:42.797Z,925.75
2018-12-07T09:16:13.281Z,925.73
2018-12-07T09:17:45.745Z,925.73
2018-12-07T09:19:17.042Z,925.73
2018-12-07T09:20:53.951Z,925.78
2018-12-07T09:22:19.580Z,925.80
2018-12-07T09:23:51.111Z,925.81
2018-12-07T09:25:23.790Z,925.81
2018-12-07T09:26:55.249Z,925.74
2018-12-07T09:28:26.896Z,925.80
2018-12-07T09:29:57.404Z,925.83
2018-12-07T09:33:00.949Z,925.82
2018-12-07T09:34:32.137Z,925.79
2018-12-07T09:36:04.500Z,925.74
2018-12-07T09:37:35.303Z,925.81
2018-12-07T09:39:06.891Z,925.89
2018-12-07T09:40:38.870Z,925.93
2018-12-07T09:42:10.057Z,925.95
2018-12-07T09:43:41.663Z,925.88
2018-12-07T09:45:13.204Z,925.87
2018-12-07T09:46:45.114Z,925.85
2018-12-07T09:48:16.351Z,925.93
2018-12-07T09:49:48.705Z,926.02
2018-12-07T09:51:19.805Z,926.00
2018-12-07T09:52:51.002Z,926.01
2018-12-07T09:54:24.706Z,925.95
2018-12-07T09:55:54.589Z,925.98
2018-12-07T09:57:28.008Z,925.97
2018-12-07T09:58:57.295Z,925.94
2018-12-07T10:00:28.868Z,925.98
2018-12-07T10:02:00.442Z,926.09
2018-12-07T10:03:32.016Z,926.02
2018-12-07T10:05:03.650Z,925.98
2018-12-07T10:06:35.686Z,926.06
2018-12-07T10:09:38.937Z,926.44
2018-12-07T10:11:10.409Z,926.47
2018-12-07T10:12:42.197Z,926.36
2018-12-07T10:14:13.110Z,926.22
2018-12-07T10:15:45.326Z,926.32
2018-12-07T10:17:16.539Z,926.36
2018-12-07T10:21:52.300Z,926.31
2018-12-07T10:23:22.524Z,926.36
2018-12-07T10:26:25.652Z,926.39
2018-12-07T10:27:57.847Z,926.54
2018-12-07T10:29:28.971Z,926.59
2018-12-07T10:32:31.921Z,926.55
2018-12-07T10:34:04.573Z,926.68
2018-12-07T10:35:35.532Z,926.58
2018-12-07T10:37:06.689Z,926.53
2018-12-07T10:38:38.218Z,926.58
2018-12-07T10:41:42.175Z,926.65
2018-12-07T10:43:12.996Z,926.70
2018-12-07T10:44:45.145Z,926.72
2018-12-07T10:47:50.381Z,926.85
2018-12-07T10:49:19.447Z,926.78
2018-12-07T10:50:50.829Z,926.78
2018-12-07T10:52:22.397Z,926.90
2018-12-07T10:53:54.235Z,926.81
2018-12-07T10:55:25.598Z,926.83
2018-12-07T10:58:28.700Z,926.84
2018-12-07T11:00:00.281Z,926.86
2018-12-07T11:01:31.853Z,926.95
2018-12-07T11:04:35.025Z,926.98
2018-12-07T11:06:06.739Z,927.07
2018-12-07T11:07:39.083Z,927.07
2018-12-07T11:09:09.739Z,927.07
2018-12-07T11:10:41.312Z,927.14
2018-12-07T11:12:13.093Z,927.08
2018-12-07T11:13:44.465Z,927.03
2018-12-07T11:15:16.127Z,927.05
2018-12-07T11:16:47.825Z,927.07
2018-12-07T11:18:19.423Z,927.27
2018-12-07T11:19:51.503Z,927.37
2018-12-07T11:21:23.334Z,927.20
2018-12-07T11:22:53.928Z,927.22
2018-12-07T11:24:25.705Z,927.29
2018-12-07T11:27:28.658Z,927.08
2018-12-07T11:29:00.235Z,927.35
2018-12-07T11:30:31.812Z,927.51
2018-12-07T11:32:03.398Z,927.53
2018-12-07T11:33:35.087Z,927.31
2018-12-07T11:35:06.869Z,927.42
2018-12-07T11:36:38.124Z,927.25
2018-12-07T11:38:09.702Z,927.24
2018-12-07T11:39:41.436Z,927.39
2018-12-07T11:41:12.860Z,927.33
2018-12-07T11:42:44.538Z,927.20
2018-12-07T11:44:16.043Z,927.10
2018-12-07T11:47:19.173Z,927.59
2018-12-07T11:48:51.673Z,927.46
2018-12-07T11:50:22.548Z,927.58
2018-12-07T11:51:54.234Z,927.73
2018-12-07T11:53:25.488Z,927.71
2018-12-07T11:54:58.486Z,927.45
2018-12-07T11:56:28.646Z,927.46
2018-12-07T11:58:00.741Z,927.51
2018-12-07T11:59:31.805Z,927.60
2018-12-07T12:01:03.577Z,927.47
2018-12-07T12:02:35.013Z,927.36
2018-12-07T12:04:06.543Z,927.92
2018-12-07T12:05:38.162Z,927.86
2018-12-07T12:07:09.701Z,927.73
2018-12-07T12:08:41.282Z,927.76
2018-12-07T12:10:12.871Z,927.78
2018-12-07T12:11:44.449Z,927.76
2018-12-07T12:14:47.931Z,927.89
2018-12-07T12:16:19.197Z,927.96
2018-12-07T12:17:50.761Z,927.83
2018-12-07T12:19:22.860Z,927.84
2018-12-07T12:20:54.036Z,927.91
2018-12-07T12:22:25.500Z,927.63
2018-12-07T12:23:57.082Z,927.65
2018-12-07T12:25:28.697Z,927.57
2018-12-07T12:28:31.826Z,928.01
2018-12-07T12:30:03.406Z,927.91
2018-12-07T12:31:34.989Z,927.91
2018-12-07T12:33:06.598Z,927.80
2018-12-07T12:36:16.795Z,927.80
2018-12-07T12:37:41.344Z,927.89
2018-12-07T12:39:12.946Z,927.87
2018-12-07T12:40:44.478Z,927.72
2018-12-07T12:42:16.071Z,927.77
2018-12-07T12:45:19.224Z,927.67
2018-12-07T12:46:50.814Z,927.55
2018-12-07T12:48:22.390Z,927.45
2018-12-07T12:49:53.972Z,927.46
2018-12-07T12:51:25.962Z,927.53
2018-12-07T12:52:57.321Z,927.55
2018-12-07T12:54:28.877Z,927.56
2018-12-07T12:56:00.541Z,927.56
2018-12-07T12:57:31.887Z,927.57
2018-12-07T12:59:03.473Z,927.57
2018-12-07T13:00:35.057Z,927.73
2018-12-07T13:06:41.388Z,927.76
2018-12-07T13:08:13.021Z,927.92
2018-12-07T13:11:16.139Z,927.73
2018-12-07T13:12:48.331Z,927.58
2018-12-07T13:14:19.307Z,927.58
2018-12-07T13:15:50.890Z,927.68
2018-12-07T13:17:22.480Z,927.87
2018-12-07T13:18:54.069Z,927.77
2018-12-07T13:20:25.675Z,927.63
2018-12-07T13:21:57.226Z,927.63
2018-12-07T13:23:28.813Z,927.85
2018-12-07T13:25:00.393Z,927.89
2018-12-07T13:26:31.975Z,927.79
2018-12-07T13:28:03.583Z,927.94
2018-12-07T13:29:35.141Z,927.85
2018-12-07T13:31:07.348Z,927.53
2018-12-07T13:32:38.309Z,927.79
2018-12-07T13:34:09.895Z,927.61
2018-12-07T13:35:41.476Z,927.32
2018-12-07T13:37:13.059Z,927.32
2018-12-07T13:38:44.642Z,927.77
2018-12-07T13:40:16.338Z,927.80
2018-12-07T13:43:19.472Z,927.52
2018-12-07T13:44:51.284Z,927.55
2018-12-07T13:46:22.638Z,927.59
2018-12-07T13:47:54.165Z,927.54
2018-12-07T13:49:26.100Z,927.59
2018-12-07T13:52:29.096Z,927.49
2018-12-07T13:54:00.917Z,927.61
2018-12-07T13:55:32.462Z,927.58
2018-12-07T13:57:03.826Z,927.49
2018-12-07T13:58:35.245Z,927.36
2018-12-07T14:00:06.897Z,927.11
2018-12-07T14:01:39.089Z,927.26
2018-12-07T14:03:10.375Z,927.23
2018-12-07T14:04:41.869Z,927.21
2018-12-07T14:06:13.897Z,927.44
2018-12-07T14:07:45.003Z,927.48
2018-12-07T14:09:16.327Z,927.22
2018-12-07T14:12:19.809Z,927.47
2018-12-07T14:13:51.093Z,927.70
2018-12-07T14:15:22.833Z,927.69
2018-12-07T14:16:54.325Z,927.70
2018-12-07T14:18:26.071Z,927.56
2018-12-07T14:21:29.096Z,927.23
2018-12-07T14:23:01.834Z,927.34
2018-12-07T14:24:33.871Z,927.31
2018-12-07T14:26:03.704Z,927.24
2018-12-07T14:27:35.523Z,927.42
2018-12-07T14:29:06.996Z,927.64
2018-12-07T14:30:38.488Z,927.77
2018-12-07T14:32:10.063Z,927.69
2018-12-07T14:33:41.772Z,927.28
2018-12-07T14:35:13.219Z,927.43
2018-12-07T14:36:44.826Z,927.43
2018-12-07T14:38:16.492Z,927.76
2018-12-07T14:39:48.484Z,927.84
2018-12-07T14:41:19.505Z,927.41
2018-12-07T14:44:23.143Z,927.50
2018-12-07T14:45:54.762Z,927.49
2018-12-07T14:50:28.998Z,927.55
2018-12-07T14:52:00.607Z,927.66
2018-12-07T14:55:03.981Z,927.78
2018-12-07T14:56:36.170Z,927.88
2018-12-07T14:58:07.092Z,927.89
2018-12-07T14:59:38.720Z,927.74
2018-12-07T15:01:10.262Z,927.74
2018-12-07T15:02:42.229Z,927.87
2018-12-07T15:04:13.433Z,927.90
2018-12-07T15:05:45.035Z,927.83
2018-12-07T15:07:16.499Z,927.31
2018-12-07T15:08:48.026Z,927.33
2018-12-07T15:10:19.605Z,927.68
2018-12-07T15:11:51.149Z,927.65
2018-12-07T15:14:54.323Z,927.72
2018-12-07T15:16:26.049Z,927.51
2018-12-07T15:19:29.077Z,927.52
2018-12-07T15:22:32.540Z,927.37
2018-12-07T15:24:03.935Z,927.51
2018-12-07T15:25:35.904Z,927.45
2018-12-07T15:27:07.156Z,927.47
2018-12-07T15:30:10.536Z,927.40
2018-12-07T15:31:41.971Z,927.54
2018-12-07T15:33:14.443Z,927.34
2018-12-07T15:34:45.212Z,927.55
2018-12-07T15:36:16.730Z,927.28
2018-12-07T15:37:48.139Z,927.26
2018-12-07T15:39:19.708Z,927.17
2018-12-07T15:40:51.551Z,927.29
2018-12-07T15:42:22.920Z,927.36
2018-12-07T15:43:54.672Z,927.54
2018-12-07T15:45:26.086Z,927.05
2018-12-07T15:48:29.671Z,927.01
2018-12-07T15:51:32.401Z,927.67
2018-12-07T15:54:35.482Z,927.65
2018-12-07T15:57:38.708Z,927.64
2018-12-07T15:59:10.549Z,927.42
2018-12-07T16:03:45.629Z,927.36
2018-12-07T16:05:16.761Z,927.27
2018-12-07T16:06:48.462Z,927.09
2018-12-07T16:09:51.479Z,927.29
2018-12-07T16:11:23.205Z,927.23
2018-12-07T16:12:54.562Z,927.19
2018-12-07T16:14:26.079Z,927.30
2018-12-07T16:15:58.119Z,927.20
2018-12-07T16:17:29.531Z,927.61
2018-12-07T16:19:01.025Z,927.72
2018-12-07T16:20:33.046Z,927.05
2018-12-07T16:22:04.142Z,926.76
2018-12-07T16:25:07.278Z,926.82
2018-12-07T16:26:38.735Z,926.94
2018-12-07T16:28:10.316Z,926.93
2018-12-07T16:32:45.093Z,926.95
2018-12-07T16:34:16.659Z,926.89
2018-12-07T16:35:48.549Z,926.86
2018-12-07T16:37:20.009Z,926.56
2018-12-07T16:38:51.582Z,927.02
2018-12-07T16:40:23.451Z,926.95
2018-12-07T16:41:55.090Z,926.87
2018-12-07T16:43:26.848Z,926.59
2018-12-07T16:44:58.421Z,926.27
2018-12-07T16:46:29.970Z,926.39
2018-12-07T16:48:01.260Z,926.50
2018-12-07T16:49:32.779Z,926.38
2018-12-07T16:51:04.868Z,926.43
2018-12-07T16:52:36.722Z,926.50
2018-12-07T16:54:07.919Z,926.97
2018-12-07T16:55:39.270Z,926.98
2018-12-07T16:57:11.404Z,926.18
2018-12-07T16:58:42.300Z,926.10
2018-12-07T17:00:14.237Z,926.03
2018-12-07T17:01:45.653Z,925.92
2018-12-07T17:04:48.810Z,925.91
2018-12-07T17:06:21.256Z,925.98
2018-12-07T17:07:53.399Z,926.09
2018-12-07T17:09:25.254Z,925.99
2018-12-07T17:10:56.974Z,925.87
2018-12-07T17:13:59.485Z,926.13
2018-12-07T17:15:30.283Z,925.91
2018-12-07T17:17:02.334Z,925.86
2018-12-07T17:18:33.503Z,925.86
2018-12-07T17:20:05.171Z,925.86
2018-12-07T17:21:36.335Z,925.93
2018-12-07T17:23:08.147Z,925.84
2018-12-07T17:24:40.147Z,925.99
2018-12-07T17:26:11.433Z,926.24
2018-12-07T17:27:43.694Z,926.16
2018-12-07T17:29:14.202Z,926.04
2018-12-07T17:30:45.750Z,925.86
2018-12-07T17:32:17.498Z,925.84
2018-12-07T17:33:50.946Z,925.82
2018-12-07T17:35:21.394Z,925.72
2018-12-07T17:36:52.127Z,925.82
2018-12-07T17:38:23.517Z,925.79
2018-12-07T17:39:55.141Z,925.78
2018-12-07T17:41:27.035Z,925.84
2018-12-07T17:42:57.921Z,925.87
2018-12-07T17:44:29.379Z,925.92
2018-12-07T17:46:01.105Z,926.01
2018-12-07T17:47:32.722Z,926.06
2018-12-07T17:50:35.968Z,925.85
2018-12-07T17:52:07.555Z,925.94
2018-12-07T17:53:38.945Z,925.93
2018-12-07T17:55:10.660Z,925.82
2018-12-07T17:56:42.047Z,925.85
2018-12-07T17:58:13.680Z,925.95
2018-12-07T17:59:45.262Z,925.96
2018-12-07T18:01:16.679Z,925.93
2018-12-07T18:02:48.255Z,925.92
2018-12-07T18:04:19.829Z,926.05
2018-12-07T18:05:51.440Z,926.10
2018-12-07T18:07:23.061Z,926.13
2018-12-07T18:08:55.019Z,926.27
2018-12-07T18:10:26.398Z,926.21
2018-12-07T18:13:29.814Z,926.28
2018-12-07T18:15:00.887Z,926.36
2018-12-07T18:16:32.608Z,926.33
2018-12-07T18:18:04.109Z,926.28
2018-12-07T18:19:35.778Z,926.22
2018-12-07T18:21:07.154Z,926.09
2018-12-07T18:22:38.726Z,926.09
2018-12-07T18:24:10.421Z,926.11
2018-12-07T18:25:41.926Z,926.24
2018-12-07T18:27:13.456Z,926.37
2018-12-07T18:28:45.849Z,926.14
2018-12-07T18:30:16.624Z,926.05
2018-12-07T18:31:48.425Z,926.04
2018-12-07T18:33:19.839Z,926.20
2018-12-07T18:34:51.852Z,926.22
2018-12-07T18:36:22.983Z,926.26
2018-12-07T18:37:54.739Z,926.35
2018-12-07T18:39:26.085Z,926.24
2018-12-07T18:40:57.955Z,926.18
2018-12-07T18:42:29.276Z,926.20
2018-12-07T18:44:00.784Z,926.28
2018-12-07T18:45:32.391Z,926.16
2018-12-07T18:47:04.008Z,926.24
2018-12-07T18:48:35.567Z,926.18
2018-12-07T18:51:39.015Z,926.33
2018-12-07T18:53:10.391Z,926.06
2018-12-07T18:54:42.205Z,926.04
2018-12-07T18:56:13.689Z,926.05
2018-12-07T18:57:45.091Z,925.96
2018-12-07T18:59:16.768Z,926.13
2018-12-07T19:00:48.183Z,926.35
2018-12-07T19:03:51.320Z,926.15
2018-12-07T19:05:22.829Z,925.95
2018-12-07T19:06:54.728Z,926.06
2018-12-07T19:08:26.272Z,926.20
2018-12-07T19:09:57.733Z,925.82
2018-12-07T19:11:29.330Z,925.89
2018-12-07T19:13:00.736Z,925.97
2018-12-07T19:14:32.281Z,926.03
2018-12-07T19:16:03.953Z,926.08
2018-12-07T19:17:35.598Z,925.98
2018-12-07T19:20:38.596Z,925.94
2018-12-07T19:22:10.166Z,925.96
2018-12-07T19:23:41.943Z,925.84
2018-12-07T19:25:13.362Z,925.86
2018-12-07T19:26:45.316Z,925.92
2018-12-07T19:28:16.765Z,925.82
2018-12-07T19:29:48.357Z,925.84
2018-12-07T19:31:19.607Z,925.88
2018-12-07T19:32:51.187Z,925.90
2018-12-07T19:34:22.969Z,925.89
2018-12-07T19:35:54.388Z,925.91
2018-12-07T19:37:25.906Z,925.89
2018-12-07T19:38:57.750Z,926.03
2018-12-07T19:40:29.411Z,926.09
2018-12-07T19:42:00.644Z,926.05
2018-12-07T19:43:32.242Z,926.14
2018-12-07T19:45:03.778Z,926.24
2018-12-07T19:46:35.596Z,926.21
2018-12-07T19:48:06.976Z,926.18
2018-12-07T19:49:38.577Z,926.44
2018-12-07T19:51:10.346Z,926.31
2018-12-07T19:52:41.907Z,926.32
2018-12-07T19:54:13.354Z,926.14
2018-12-07T19:55:45.011Z,926.18
2018-12-07T19:57:16.651Z,926.16
2018-12-07T19:58:47.950Z,926.34
2018-12-07T20:00:19.759Z,926.07
2018-12-07T20:03:22.703Z,926.02
2018-12-07T20:04:54.434Z,926.07
2018-12-07T20:06:26.163Z,926.10
2018-12-07T20:07:58.013Z,926.07
2018-12-07T20:09:29.246Z,926.05
2018-12-07T20:11:00.554Z,926.04
2018-12-07T20:12:32.124Z,926.02
2018-12-07T20:14:03.742Z,925.98
2018-12-07T20:15:35.495Z,926.03
2018-12-07T20:17:06.850Z,925.93
2018-12-07T20:18:38.619Z,925.95